Time;durP1;ratioP1;P1;durP2;ratioP2;P2;SDS_P1;SDS_P2;PMS_P1;PMS_P2;Temp;Humidity;BMP_temperature;BMP_pressure;BME280_temperature;BME280_humidity;BME280_pressure;Samples;Min_cycle;Max_cycle;Signal;HPM_P1;HPM_P2
2023/03/24 00:02:12;;;;;;;4.10;3.80;;;13.50;99.90;;;;;;5029580;28;21088;-75
2023/03/24 00:04:41;;;;;;;3.60;3.40;;;13.40;99.90;;;;;;5027683;28;20177;-75
2023/03/24 00:07:13;;;;;;;3.70;3.50;;;13.50;99.90;;;;;;5029764;28;20488;-75
2023/03/24 00:09:42;;;;;;;3.87;3.67;;;13.60;99.90;;;;;;5026652;28;20432;-75
2023/03/24 00:12:10;;;;;;;3.83;3.63;;;13.60;99.90;;;;;;5011147;28;20435;-75
2023/03/24 00:14:40;;;;;;;3.73;3.50;;;13.60;99.90;;;;;;5019019;28;20405;-75
2023/03/24 00:17:12;;;;;;;3.43;3.23;;;13.60;99.90;;;;;;5030507;28;20443;-75
2023/03/24 00:19:39;;;;;;;3.80;3.60;;;13.50;99.90;;;;;;5031622;28;20493;-75
2023/03/24 00:22:13;;;;;;;3.93;3.63;;;13.50;99.90;;;;;;5031032;28;20514;-76
2023/03/24 00:24:39;;;;;;;3.57;3.37;;;13.40;99.90;;;;;;5031727;28;20863;-76
2023/03/24 00:27:06;;;;;;;5.90;3.70;;;13.40;99.90;;;;;;5021442;28;20422;-76
2023/03/24 00:29:32;;;;;;;3.30;3.10;;;13.50;99.90;;;;;;5030897;28;20492;-75
2023/03/24 00:31:58;;;;;;;3.20;3.00;;;13.60;99.90;;;;;;5013308;28;20416;-75
2023/03/24 00:34:24;;;;;;;3.60;3.30;;;13.60;99.90;;;;;;5029270;28;20492;-75
2023/03/24 00:36:51;;;;;;;2.93;2.77;;;13.50;99.90;;;;;;4997011;28;20527;-76
2023/03/24 00:39:18;;;;;;;3.33;3.13;;;13.50;99.90;;;;;;5014154;28;20527;-76
2023/03/24 00:41:45;;;;;;;3.43;3.13;;;13.50;99.90;;;;;;5033405;28;21000;-76
2023/03/24 00:44:16;;;;;;;3.33;3.13;;;13.40;99.90;;;;;;5033616;28;20451;-75
2023/03/24 00:46:54;;;;;;;3.53;3.33;;;13.40;99.90;;;;;;5035015;28;20940;-75
2023/03/24 00:49:41;;;;;;;3.23;3.03;;;13.50;99.90;;;;;;5034169;28;20467;-76
2023/03/24 00:52:16;;;;;;;3.37;3.17;;;13.60;99.90;;;;;;5034570;28;20383;-76
2023/03/24 00:54:44;;;;;;;2.97;2.73;;;13.60;99.90;;;;;;5035350;28;20482;-76
2023/03/24 00:57:20;;;;;;;2.83;2.63;;;13.60;99.90;;;;;;5031082;28;20422;-75
2023/03/24 00:59:47;;;;;;;2.93;2.83;;;13.50;99.90;;;;;;5022806;28;20744;-76
2023/03/24 01:02:24;;;;;;;3.53;3.33;;;13.50;99.90;;;;;;5012289;28;20924;-75
2023/03/24 01:04:53;;;;;;;3.70;3.40;;;13.50;99.90;;;;;;5034294;28;20421;-76
2023/03/24 01:07:20;;;;;;;3.23;3.03;;;13.50;99.90;;;;;;5033902;28;20910;-76
2023/03/24 01:09:56;;;;;;;3.00;2.80;;;13.60;99.90;;;;;;5034092;28;20905;-75
2023/03/24 01:12:23;;;;;;;3.33;3.13;;;13.70;99.90;;;;;;5030923;28;20923;-75
2023/03/24 01:14:50;;;;;;;3.70;3.50;;;13.60;99.90;;;;;;5034017;28;20428;-76
2023/03/24 01:17:15;;;;;;;3.43;3.20;;;13.70;99.90;;;;;;5033570;28;21047;-76
2023/03/24 01:19:41;;;;;;;3.50;3.30;;;13.70;99.90;;;;;;5017143;28;20402;-76
2023/03/24 01:22:07;;;;;;;3.50;3.30;;;13.60;99.90;;;;;;5032632;28;20609;-76
2023/03/24 01:24:32;;;;;;;4.17;3.77;;;13.60;99.90;;;;;;5031985;28;20296;-76
2023/03/24 01:26:59;;;;;;;3.30;3.10;;;13.70;99.90;;;;;;5010707;28;20175;-76
2023/03/24 01:29:24;;;;;;;3.77;3.53;;;13.60;99.90;;;;;;5030982;28;20630;-75
2023/03/24 01:31:50;;;;;;;3.27;3.10;;;13.60;99.90;;;;;;5033238;28;20434;-76
2023/03/24 01:34:16;;;;;;;3.70;3.50;;;13.60;99.90;;;;;;5030151;28;20257;-76
2023/03/24 01:36:42;;;;;;;3.97;3.67;;;13.60;99.90;;;;;;5033032;28;20172;-76
2023/03/24 01:39:08;;;;;;;3.90;3.70;;;13.50;99.90;;;;;;5032395;28;20401;-76
2023/03/24 01:41:36;;;;;;;4.10;3.43;;;13.50;99.90;;;;;;5032454;28;20315;-76
2023/03/24 01:44:26;;;;;;;4.07;3.77;;;13.60;99.90;;;;;;5031971;28;20228;-76
2023/03/24 01:46:53;;;;;;;3.97;3.67;;;13.60;99.90;;;;;;5037505;28;20795;-76
2023/03/24 01:49:20;;;;;;;3.53;3.40;;;13.70;99.90;;;;;;5031310;28;20420;-76
2023/03/24 01:51:51;;;;;;;3.93;3.63;;;13.70;99.90;;;;;;5031132;28;20417;-76
2023/03/24 01:54:24;;;;;;;3.50;3.30;;;13.70;99.90;;;;;;5028957;28;20488;-77
2023/03/24 01:57:02;;;;;;;3.90;3.60;;;13.70;99.90;;;;;;5031039;28;20425;-76
2023/03/24 01:59:34;;;;;;;3.80;3.50;;;13.60;99.90;;;;;;5029497;28;20400;-76
2023/03/24 02:02:02;;;;;;;3.60;3.40;;;13.60;99.90;;;;;;5029174;28;20432;-76
2023/03/24 02:04:43;;;;;;;3.60;3.30;;;13.60;99.90;;;;;;5033507;28;20414;-75
2023/03/24 02:07:34;;;;;;;3.43;3.13;;;13.60;99.90;;;;;;5032918;28;20450;-75
2023/03/24 02:10:03;;;;;;;3.60;3.30;;;13.60;99.90;;;;;;5033645;28;20423;-77
2023/03/24 02:12:31;;;;;;;4.03;3.63;;;13.60;99.90;;;;;;5034346;28;20422;-78
2023/03/24 02:14:57;;;;;;;3.50;3.30;;;13.70;99.90;;;;;;5032034;28;20423;-79
2023/03/24 02:18:12;;;;;;;3.27;3.10;;;13.70;99.90;;;;;;5033725;28;20411;-78
2023/03/24 02:21:19;;;;;;;3.60;3.40;;;13.70;99.90;;;;;;4998041;28;20423;-78
2023/03/24 02:23:54;;;;;;;4.47;4.03;;;13.70;99.90;;;;;;5033207;28;20487;-78
2023/03/24 02:26:51;;;;;;;4.50;4.10;;;13.70;99.90;;;;;;5040587;28;20425;-78
2023/03/24 02:29:35;;;;;;;4.00;3.70;;;13.70;99.90;;;;;;5031483;28;20983;-78
2023/03/24 02:32:31;;;;;;;4.40;4.00;;;13.70;99.90;;;;;;5032907;28;20415;-78
2023/03/24 02:35:39;;;;;;;4.53;4.30;;;13.70;99.90;;;;;;5031201;28;20735;-76
2023/03/24 02:39:00;;;;;;;4.10;3.90;;;13.60;99.90;;;;;;5031869;28;20733;-75
2023/03/24 02:41:52;;;;;;;4.60;4.30;;;13.70;99.90;;;;;;4944807;28;20503;-74
2023/03/24 02:44:34;;;;;;;4.77;4.30;;;13.70;99.90;;;;;;5032318;28;20535;-77
2023/03/24 02:47:23;;;;;;;4.70;4.40;;;13.70;99.90;;;;;;5041790;28;20501;-78
2023/03/24 02:50:22;;;;;;;4.40;4.20;;;13.70;99.90;;;;;;5050939;28;20422;-78
2023/03/24 02:53:04;;;;;;;4.60;4.30;;;13.70;99.90;;;;;;5051773;28;20437;-78
2023/03/24 02:55:31;;;;;;;4.13;3.90;;;13.80;99.90;;;;;;5050593;28;20423;-78
2023/03/24 02:58:03;;;;;;;5.07;4.67;;;13.70;99.90;;;;;;5051315;28;20430;-77
2023/03/24 03:00:58;;;;;;;4.10;3.83;;;13.70;99.90;;;;;;5051491;28;20407;-77
2023/03/24 03:03:45;;;;;;;4.57;4.23;;;13.60;99.90;;;;;;5048514;28;20954;-77
2023/03/24 03:06:22;;;;;;;4.63;4.30;;;13.60;99.90;;;;;;5033079;28;20419;-77
2023/03/24 03:08:50;;;;;;;5.20;4.90;;;13.50;99.90;;;;;;5031287;28;20500;-77
2023/03/24 03:11:17;;;;;;;4.43;4.13;;;13.50;99.90;;;;;;5032511;28;20594;-77
2023/03/24 03:13:52;;;;;;;4.93;4.53;;;13.50;99.90;;;;;;5051308;28;20427;-77
2023/03/24 03:16:38;;;;;;;4.53;4.33;;;13.60;99.90;;;;;;5050277;28;20697;-77
2023/03/24 03:19:29;;;;;;;5.70;5.30;;;13.60;99.90;;;;;;5050896;28;20407;-77
2023/03/24 03:21:57;;;;;;;4.60;4.30;;;13.60;99.90;;;;;;5052658;28;20733;-76
2023/03/24 03:24:31;;;;;;;4.57;4.17;;;13.70;99.90;;;;;;5052209;28;20980;-76
2023/03/24 03:27:02;;;;;;;5.40;5.07;;;13.70;99.90;;;;;;5051166;28;20894;-76
2023/03/24 03:29:33;;;;;;;4.67;4.27;;;13.70;99.90;;;;;;5048221;28;21455;-77
2023/03/24 03:32:06;;;;;;;4.73;4.43;;;13.70;99.90;;;;;;5032440;28;20726;-76
2023/03/24 03:34:51;;;;;;;5.00;4.60;;;13.70;99.90;;;;;;5035018;28;20450;-77
2023/03/24 03:37:28;;;;;;;4.43;4.23;;;13.80;99.90;;;;;;5051461;28;20391;-77
2023/03/24 03:40:17;;;;;;;5.20;3.90;;;13.80;99.90;;;;;;5052429;28;20391;-77
2023/03/24 03:42:43;;;;;;;4.30;4.00;;;13.90;99.90;;;;;;5035021;28;20481;-77
2023/03/24 03:45:09;;;;;;;4.47;4.00;;;14.00;99.90;;;;;;5031320;28;20463;-77
2023/03/24 03:47:36;;;;;;;4.80;4.50;;;13.90;99.90;;;;;;5031698;28;20397;-77
2023/03/24 03:50:03;;;;;;;4.60;4.30;;;14.00;99.90;;;;;;5020124;28;20837;-77
2023/03/24 03:52:29;;;;;;;4.80;4.40;;;14.00;99.90;;;;;;5012305;28;20885;-77
2023/03/24 03:54:57;;;;;;;5.27;4.70;;;14.10;99.90;;;;;;5013910;28;20434;-77
2023/03/24 03:57:23;;;;;;;4.73;4.43;;;14.10;99.90;;;;;;5031787;28;20412;-78
2023/03/24 03:59:49;;;;;;;5.00;4.70;;;14.10;99.90;;;;;;5032108;28;20404;-78
2023/03/24 04:02:31;;;;;;;4.83;4.43;;;14.10;99.90;;;;;;5031296;28;20208;-78
2023/03/24 04:05:02;;;;;;;5.47;5.17;;;14.20;99.90;;;;;;5032118;28;20443;-78
2023/03/24 04:07:56;;;;;;;5.67;5.27;;;14.20;99.90;;;;;;5031978;28;20400;-78
2023/03/24 04:10:28;;;;;;;5.90;5.43;;;14.20;99.90;;;;;;4994777;28;20452;-78
2023/03/24 04:13:32;;;;;;;5.60;5.20;;;14.20;99.90;;;;;;5012389;28;20418;-77
2023/03/24 04:16:19;;;;;;;6.30;5.80;;;14.20;99.90;;;;;;4997476;28;20504;-78
2023/03/24 04:19:16;;;;;;;6.43;6.03;;;14.20;99.90;;;;;;4986411;28;20737;-78
2023/03/24 04:21:50;;;;;;;6.27;5.87;;;14.10;99.90;;;;;;5020330;28;20467;-77
2023/03/24 04:24:42;;;;;;;5.60;5.30;;;14.10;99.90;;;;;;5035179;28;20452;-77
2023/03/24 04:27:15;;;;;;;7.37;6.73;;;14.00;99.90;;;;;;5015716;28;20394;-77
2023/03/24 04:29:59;;;;;;;7.10;6.63;;;14.00;99.90;;;;;;4998450;28;20426;-78
2023/03/24 04:32:45;;;;;;;6.90;6.40;;;14.00;99.90;;;;;;4998056;28;20443;-77
2023/03/24 04:35:35;;;;;;;7.10;6.60;;;14.00;99.90;;;;;;5015296;28;20456;-77
2023/03/24 04:38:07;;;;;;;7.40;6.80;;;13.90;99.90;;;;;;5015395;28;20418;-79
2023/03/24 04:40:35;;;;;;;8.93;8.23;;;13.90;99.90;;;;;;5017819;28;20444;-78
2023/03/24 04:43:06;;;;;;;7.30;6.80;;;13.90;99.90;;;;;;5015235;28;20956;-78
2023/03/24 04:45:34;;;;;;;6.60;6.20;;;13.80;99.90;;;;;;5009879;28;20471;-78
2023/03/24 04:48:03;;;;;;;7.77;7.20;;;13.80;99.90;;;;;;5035577;28;20405;-78
2023/03/24 04:50:33;;;;;;;7.67;7.07;;;13.80;99.90;;;;;;5017563;28;20405;-78
2023/03/24 04:52:59;;;;;;;6.00;5.50;;;13.90;99.90;;;;;;5035489;28;20404;-78
2023/03/24 04:55:53;;;;;;;6.87;6.30;;;13.90;99.90;;;;;;5033271;28;20470;-78
2023/03/24 04:58:21;;;;;;;7.40;6.80;;;13.90;99.90;;;;;;5034616;28;20455;-77
2023/03/24 05:00:48;;;;;;;6.93;6.43;;;13.90;99.90;;;;;;5034425;28;20432;-78
2023/03/24 05:03:15;;;;;;;6.23;5.73;;;14.00;99.90;;;;;;5034419;28;20448;-78
2023/03/24 05:05:42;;;;;;;6.30;5.90;;;14.00;99.90;;;;;;5034535;28;20459;-77
2023/03/24 05:08:09;;;;;;;6.10;5.70;;;14.10;99.90;;;;;;5016494;28;20415;-77
2023/03/24 05:10:35;;;;;;;5.07;4.77;;;14.10;99.90;;;;;;5022425;28;20432;-78
2023/03/24 05:13:02;;;;;;;3.47;3.17;;;14.00;99.90;;;;;;5015409;28;20496;-78
2023/03/24 05:15:28;;;;;;;3.30;3.10;;;14.00;99.90;;;;;;5014875;28;20410;-78
2023/03/24 05:17:54;;;;;;;3.50;3.30;;;13.90;99.90;;;;;;5017351;28;20767;-77
2023/03/24 05:20:20;;;;;;;3.63;3.40;;;13.90;99.90;;;;;;4998733;28;20188;-78
2023/03/24 05:22:47;;;;;;;4.00;3.80;;;13.90;99.90;;;;;;5028211;28;20456;-78
2023/03/24 05:25:13;;;;;;;4.37;3.97;;;13.90;99.90;;;;;;5026118;28;20171;-79
2023/03/24 05:27:38;;;;;;;4.07;3.77;;;14.00;99.90;;;;;;5034233;28;20405;-77
2023/03/24 05:30:06;;;;;;;4.70;4.40;;;14.00;99.90;;;;;;5027572;28;20178;-78
2023/03/24 05:32:32;;;;;;;5.67;4.07;;;14.00;99.90;;;;;;5015018;28;20179;-78
2023/03/24 05:34:57;;;;;;;5.07;4.57;;;14.00;99.90;;;;;;5014893;28;20468;-78
2023/03/24 05:37:23;;;;;;;6.10;5.70;;;14.00;99.90;;;;;;5014156;28;20597;-78
2023/03/24 05:39:49;;;;;;;4.97;4.57;;;14.10;99.90;;;;;;5014999;28;20185;-79
2023/03/24 05:42:21;;;;;;;4.53;3.60;;;14.10;99.90;;;;;;5026160;28;20248;-78
2023/03/24 05:44:46;;;;;;;3.87;3.60;;;14.00;99.90;;;;;;5054593;28;20172;-79
2023/03/24 05:47:15;;;;;;;4.73;4.30;;;14.00;99.90;;;;;;5044227;28;20412;-79
2023/03/24 05:49:47;;;;;;;4.57;4.27;;;14.00;99.90;;;;;;5033074;28;20167;-78
2023/03/24 05:52:15;;;;;;;4.27;3.87;;;13.90;99.90;;;;;;5033995;28;20507;-79
2023/03/24 05:54:41;;;;;;;4.33;4.03;;;14.00;99.90;;;;;;5033400;28;20905;-78
2023/03/24 05:57:12;;;;;;;3.07;2.87;;;13.90;99.90;;;;;;5032624;28;20911;-78
2023/03/24 05:59:38;;;;;;;4.10;3.80;;;13.90;99.90;;;;;;5034987;28;20504;-79
2023/03/24 06:02:04;;;;;;;4.00;3.80;;;13.90;99.90;;;;;;5034275;28;20437;-77
2023/03/24 06:04:30;;;;;;;4.37;4.07;;;13.90;99.90;;;;;;5033761;28;20842;-77
2023/03/24 06:06:57;;;;;;;4.03;3.67;;;13.80;99.90;;;;;;5034306;28;20403;-77
2023/03/24 06:09:28;;;;;;;4.67;4.20;;;13.80;99.90;;;;;;5032092;28;20842;-77
2023/03/24 06:11:55;;;;;;;3.90;3.70;;;13.80;99.90;;;;;;5033959;28;20503;-76
2023/03/24 06:14:21;;;;;;;6.27;5.67;;;13.80;99.90;;;;;;5034725;28;20801;-77
2023/03/24 06:16:48;;;;;;;6.60;6.00;;;13.80;99.90;;;;;;5045029;28;20415;-77
2023/03/24 06:19:15;;;;;;;5.47;4.97;;;14.00;99.90;;;;;;5033607;28;20162;-77
2023/03/24 06:21:40;;;;;;;6.53;6.00;;;14.20;99.90;;;;;;5047541;28;20761;-77
2023/03/24 06:24:06;;;;;;;4.73;4.33;;;14.50;99.90;;;;;;5052581;28;20460;-77
2023/03/24 06:26:32;;;;;;;6.07;5.53;;;14.70;99.90;;;;;;5054477;28;20603;-78
2023/03/24 06:28:58;;;;;;;6.07;5.47;;;14.90;99.90;;;;;;5053996;28;20411;-76
2023/03/24 06:31:26;;;;;;;4.20;3.90;;;15.00;99.90;;;;;;5035395;28;20406;-77
2023/03/24 06:33:52;;;;;;;4.07;3.77;;;15.20;99.90;;;;;;5053332;28;20534;-77
2023/03/24 06:36:18;;;;;;;4.63;4.13;;;15.40;99.90;;;;;;5041469;28;20520;-77
2023/03/24 06:38:44;;;;;;;3.33;3.13;;;15.60;99.90;;;;;;5051672;28;20504;-77
2023/03/24 06:41:11;;;;;;;3.23;3.00;;;15.70;99.90;;;;;;5025318;28;20474;-77
2023/03/24 06:43:36;;;;;;;5.23;4.83;;;15.80;99.90;;;;;;5049554;28;20462;-77
2023/03/24 06:46:02;;;;;;;3.63;3.33;;;15.90;99.90;;;;;;5032521;28;20428;-76
2023/03/24 06:48:28;;;;;;;5.50;4.27;;;16.10;99.90;;;;;;5032744;28;20170;-78
2023/03/24 06:50:54;;;;;;;4.10;3.80;;;16.00;99.90;;;;;;5031283;28;20231;-78
2023/03/24 06:53:21;;;;;;;4.57;4.27;;;16.10;99.90;;;;;;5032652;28;20176;-76
2023/03/24 06:55:48;;;;;;;4.00;3.20;;;16.10;99.90;;;;;;5036759;28;20431;-78
2023/03/24 06:58:15;;;;;;;3.30;3.10;;;16.20;99.90;;;;;;5038735;28;20429;-77
2023/03/24 07:00:41;;;;;;;3.93;3.63;;;16.20;99.90;;;;;;5038843;28;20442;-78
2023/03/24 07:03:07;;;;;;;4.10;3.10;;;16.30;99.90;;;;;;5053461;28;20444;-78
2023/03/24 07:05:37;;;;;;;4.17;3.67;;;16.30;99.90;;;;;;5039118;28;20231;-77
2023/03/24 07:08:03;;;;;;;2.90;2.70;;;16.30;99.90;;;;;;5033317;28;20396;-77
2023/03/24 07:10:29;;;;;;;3.00;2.70;;;16.20;99.90;;;;;;5031915;28;20404;-77
2023/03/24 07:12:56;;;;;;;3.90;3.30;;;16.10;99.90;;;;;;5036400;28;20183;-79
2023/03/24 07:15:22;;;;;;;7.33;4.13;;;16.00;99.90;;;;;;5047683;28;20480;-79
2023/03/24 07:17:48;;;;;;;3.43;3.03;;;16.00;99.90;;;;;;5046965;28;20441;-79
2023/03/24 07:20:14;;;;;;;5.07;4.07;;;15.90;99.90;;;;;;5031251;28;20487;-75
2023/03/24 07:22:40;;;;;;;3.37;3.07;;;15.90;99.90;;;;;;5044079;28;20608;-77
2023/03/24 07:25:07;;;;;;;4.30;2.90;;;16.00;99.90;;;;;;5051519;28;20909;-77
2023/03/24 07:27:33;;;;;;;3.77;3.03;;;15.90;99.90;;;;;;5041040;28;20431;-77
2023/03/24 07:30:00;;;;;;;3.47;3.00;;;15.90;99.90;;;;;;5051183;28;20427;-77
2023/03/24 07:32:28;;;;;;;7.10;2.97;;;15.90;99.90;;;;;;5049596;28;20769;-78
2023/03/24 07:34:54;;;;;;;3.97;3.67;;;16.00;99.90;;;;;;5043832;28;20921;-78
2023/03/24 07:37:20;;;;;;;4.33;2.97;;;16.00;99.90;;;;;;5051886;28;20433;-78
2023/03/24 07:39:46;;;;;;;3.30;3.10;;;15.90;99.90;;;;;;5052718;28;20175;-78
2023/03/24 07:42:12;;;;;;;3.00;2.40;;;15.90;99.90;;;;;;5051535;28;20457;-78
2023/03/24 07:44:38;;;;;;;4.03;3.20;;;15.70;99.90;;;;;;5039049;28;20774;-78
2023/03/24 07:47:04;;;;;;;2.87;2.20;;;15.70;99.90;;;;;;5032325;28;20689;-75
2023/03/24 07:49:30;;;;;;;4.50;2.70;;;15.50;99.90;;;;;;5008073;28;20168;-75
2023/03/24 07:51:57;;;;;;;4.00;2.50;;;15.30;99.90;;;;;;5012628;28;20522;-75
2023/03/24 07:54:24;;;;;;;3.43;2.80;;;15.10;99.90;;;;;;5012241;28;20415;-75
2023/03/24 07:56:49;;;;;;;2.87;2.30;;;14.80;99.90;;;;;;5012938;28;20404;-75
2023/03/24 07:59:16;;;;;;;6.17;2.73;;;14.60;99.90;;;;;;5012562;28;20398;-78
2023/03/24 08:01:42;;;;;;;3.10;2.60;;;14.40;99.90;;;;;;5012832;28;20233;-78
2023/03/24 08:04:11;;;;;;;5.17;2.90;;;14.20;99.90;;;;;;5017496;28;20479;-77
2023/03/24 08:06:37;;;;;;;4.90;2.50;;;14.10;99.90;;;;;;5029132;28;20440;-75
2023/03/24 08:09:03;;;;;;;3.50;2.77;;;14.00;99.90;;;;;;5032250;28;20427;-77
2023/03/24 08:11:29;;;;;;;3.03;2.80;;;14.00;99.90;;;;;;5031584;28;20186;-76
2023/03/24 08:13:57;;;;;;;2.63;2.40;;;13.90;99.90;;;;;;5032202;28;20946;-76
2023/03/24 08:16:23;;;;;;;3.00;2.60;;;14.10;99.90;;;;;;5031937;28;20401;-76
2023/03/24 08:18:49;;;;;;;6.43;2.67;;;13.90;99.90;;;;;;5028006;28;20994;-76
2023/03/24 08:21:15;;;;;;;5.20;3.00;;;13.90;99.90;;;;;;5004948;28;20450;-76
2023/03/24 08:23:41;;;;;;;8.23;2.70;;;13.80;99.90;;;;;;5012615;28;20477;-77
2023/03/24 08:26:09;;;;;;;3.40;2.20;;;13.80;99.90;;;;;;5010056;28;20182;-76
2023/03/24 08:28:37;;;;;;;4.93;3.03;;;13.90;99.90;;;;;;5027075;28;20433;-76
2023/03/24 08:31:03;;;;;;;7.93;3.40;;;14.00;99.90;;;;;;5013641;28;20425;-76
2023/03/24 08:33:29;;;;;;;4.00;2.90;;;14.10;99.90;;;;;;5029375;28;20434;-79
2023/03/24 08:35:59;;;;;;;4.40;2.53;;;14.10;99.90;;;;;;5028477;28;20435;-76
2023/03/24 08:38:32;;;;;;;4.33;2.80;;;14.10;99.90;;;;;;5021988;28;20416;-76
2023/03/24 08:41:01;;;;;;;3.90;2.70;;;14.10;99.90;;;;;;5039104;28;20428;-76
2023/03/24 08:43:30;;;;;;;4.07;3.10;;;14.10;99.90;;;;;;5007521;28;20548;-76
2023/03/24 08:45:57;;;;;;;4.73;3.03;;;14.20;99.90;;;;;;5030135;28;20807;-76
2023/03/24 08:48:23;;;;;;;4.33;3.00;;;14.30;99.90;;;;;;5021104;28;20476;-76
2023/03/24 08:50:49;;;;;;;5.30;4.33;;;14.30;99.90;;;;;;5029229;28;20501;-76
2023/03/24 08:53:15;;;;;;;3.43;3.13;;;14.30;99.90;;;;;;5029280;28;20463;-76
2023/03/24 08:55:42;;;;;;;4.87;3.67;;;14.30;99.90;;;;;;5012879;28;20432;-76
2023/03/24 08:58:19;;;;;;;5.53;4.00;;;14.40;99.90;;;;;;5010729;28;20196;-78
2023/03/24 09:00:46;;;;;;;5.57;4.27;;;14.40;99.90;;;;;;5018607;28;20420;-78
2023/03/24 09:03:17;;;;;;;6.37;4.20;;;14.40;99.90;;;;;;5034142;28;20532;-77
2023/03/24 09:05:43;;;;;;;7.00;4.27;;;14.50;99.90;;;;;;5031753;28;20909;-78
2023/03/24 09:08:10;;;;;;;8.30;3.90;;;14.50;99.90;;;;;;5017413;28;20406;-78
2023/03/24 09:10:36;;;;;;;5.53;3.50;;;14.50;99.90;;;;;;5033367;28;20410;-78
2023/03/24 09:13:03;;;;;;;5.03;3.70;;;14.50;99.90;;;;;;5000218;28;20413;-79
2023/03/24 09:15:29;;;;;;;6.10;3.47;;;14.60;99.90;;;;;;5033459;28;20443;-79
2023/03/24 09:17:54;;;;;;;4.97;4.27;;;14.50;99.90;;;;;;5034459;28;20410;-79
2023/03/24 09:20:20;;;;;;;4.30;3.63;;;14.50;99.90;;;;;;5016855;28;20163;-79
2023/03/24 09:22:46;;;;;;;8.33;4.20;;;14.60;99.90;;;;;;5035351;28;20578;-79
2023/03/24 09:25:15;;;;;;;7.43;3.53;;;14.50;99.90;;;;;;5035051;28;20179;-81
2023/03/24 09:27:41;;;;;;;6.73;4.50;;;14.60;99.90;;;;;;5011652;28;20191;-78
2023/03/24 09:30:08;;;;;;;6.27;4.07;;;14.70;99.90;;;;;;5015027;28;20415;-79
2023/03/24 09:32:34;;;;;;;5.07;3.80;;;14.90;99.90;;;;;;5013943;28;21042;-78
2023/03/24 09:35:00;;;;;;;6.20;4.33;;;15.00;99.90;;;;;;5015351;28;20419;-79
2023/03/24 09:37:30;;;;;;;6.60;3.97;;;15.10;99.90;;;;;;5014849;28;20423;-80
2023/03/24 09:39:58;;;;;;;4.77;4.30;;;15.20;99.90;;;;;;5014047;28;20176;-78
2023/03/24 09:42:28;;;;;;;8.03;4.10;;;15.30;99.90;;;;;;5036154;28;20507;-78
2023/03/24 09:44:57;;;;;;;4.20;3.80;;;15.40;99.90;;;;;;5055602;28;20432;-78
2023/03/24 09:47:57;;;;;;;3.83;3.53;;;15.70;99.90;;;;;;5054260;28;20461;-78
2023/03/24 09:50:43;;;;;;;3.90;3.60;;;15.90;99.90;;;;;;4979997;28;20434;-79
2023/03/24 09:53:27;;;;;;;6.40;3.77;;;16.10;99.90;;;;;;5033774;28;20401;-80
2023/03/24 09:55:53;;;;;;;6.47;4.73;;;16.20;99.30;;;;;;5038089;28;20428;-79
2023/03/24 09:58:19;;;;;;;7.20;3.57;;;16.30;99.60;;;;;;5051597;28;20419;-80
2023/03/24 10:00:45;;;;;;;4.80;3.30;;;16.20;99.80;;;;;;5049330;28;20904;-79
2023/03/24 10:03:22;;;;;;;3.73;3.33;;;16.40;99.90;;;;;;5035006;28;20455;-76
2023/03/24 10:05:57;;;;;;;3.93;3.50;;;16.70;98.60;;;;;;5036504;28;20478;-76
2023/03/24 10:08:39;;;;;;;6.83;3.60;;;16.70;97.70;;;;;;5054131;28;20388;-79
2023/03/24 10:11:29;;;;;;;4.00;3.70;;;16.80;98.00;;;;;;5052837;28;20431;-80
2023/03/24 10:14:21;;;;;;;4.03;2.70;;;16.90;97.50;;;;;;5052712;28;20824;-80
2023/03/24 10:17:23;;;;;;;4.30;3.90;;;17.10;95.00;;;;;;5046772;28;20424;-77
2023/03/24 10:20:00;;;;;;;3.67;3.30;;;17.20;94.80;;;;;;5038717;28;20884;-79
2023/03/24 10:22:42;;;;;;;3.73;3.30;;;17.30;92.40;;;;;;5033508;28;20488;-80
2023/03/24 10:25:32;;;;;;;5.43;3.73;;;17.40;93.90;;;;;;5032670;28;20405;-80
2023/03/24 10:28:18;;;;;;;6.00;3.30;;;17.60;93.70;;;;;;5036584;28;20939;-79
2023/03/24 10:30:46;;;;;;;5.67;3.07;;;17.90;93.90;;;;;;5036422;28;20429;-79
2023/03/24 10:33:13;;;;;;;5.30;2.70;;;17.90;91.40;;;;;;5047242;28;20416;-79
2023/03/24 10:36:01;;;;;;;4.97;3.13;;;17.90;91.00;;;;;;5048944;28;20443;-80
2023/03/24 10:38:27;;;;;;;8.47;3.90;;;17.60;91.10;;;;;;5049913;28;20420;-80
2023/03/24 10:40:54;;;;;;;5.80;4.57;;;17.50;91.40;;;;;;5049218;28;20982;-79
2023/03/24 10:43:22;;;;;;;3.23;2.63;;;17.50;91.60;;;;;;5030570;28;20218;-80
2023/03/24 10:45:51;;;;;;;3.93;3.20;;;17.40;91.60;;;;;;5011912;28;20433;-80
2023/03/24 10:48:44;;;;;;;4.93;3.20;;;17.40;91.50;;;;;;5008748;28;20425;-79
2023/03/24 10:51:15;;;;;;;3.30;2.87;;;17.40;91.80;;;;;;5013482;28;20430;-78
2023/03/24 10:53:43;;;;;;;4.27;3.87;;;17.60;91.80;;;;;;5030438;28;20769;-78
2023/03/24 10:56:15;;;;;;;3.53;3.17;;;17.90;91.60;;;;;;5032784;28;20405;-78
2023/03/24 10:58:42;;;;;;;3.63;2.70;;;18.00;90.90;;;;;;5031617;28;20406;-78
2023/03/24 11:01:29;;;;;;;4.33;3.87;;;18.00;91.60;;;;;;5016688;28;20479;-78
2023/03/24 11:04:00;;;;;;;5.03;4.53;;;18.10;90.70;;;;;;5023695;28;20540;-76
2023/03/24 11:06:26;;;;;;;7.37;3.80;;;18.20;89.40;;;;;;5030418;28;20504;-77
2023/03/24 11:09:27;;;;;;;5.23;4.73;;;18.30;89.10;;;;;;5028993;28;21000;-81
2023/03/24 11:11:52;;;;;;;5.20;4.10;;;18.00;90.10;;;;;;4940326;29;20452;-82
2023/03/24 11:14:26;;;;;;;5.10;4.10;;;17.80;88.60;;;;;;5012267;28;20464;-79
2023/03/24 11:17:06;;;;;;;4.90;3.60;;;17.60;90.70;;;;;;5031417;28;20174;-75
2023/03/24 11:19:35;;;;;;;7.43;4.33;;;17.50;90.60;;;;;;5012936;28;20397;-77
2023/03/24 11:22:04;;;;;;;6.33;3.93;;;17.40;91.30;;;;;;5030332;28;20413;-77
2023/03/24 11:24:37;;;;;;;5.40;4.10;;;17.40;91.70;;;;;;5029728;28;20449;-79
2023/03/24 11:27:03;;;;;;;4.67;4.10;;;17.30;91.90;;;;;;5011558;28;20413;-81
2023/03/24 11:29:32;;;;;;;4.03;3.47;;;17.10;91.40;;;;;;5031457;28;20421;-79
2023/03/24 11:32:04;;;;;;;4.70;3.50;;;17.00;92.00;;;;;;5028767;28;20471;-79
2023/03/24 11:34:37;;;;;;;7.00;4.30;;;16.80;92.10;;;;;;5030891;28;20880;-79
2023/03/24 11:37:17;;;;;;;8.50;3.80;;;16.70;92.40;;;;;;5030522;28;20400;-80
2023/03/24 11:39:43;;;;;;;5.47;3.60;;;16.60;92.50;;;;;;5028974;28;20439;-81
2023/03/24 11:42:16;;;;;;;3.97;3.67;;;16.40;92.40;;;;;;5014988;28;20487;-80
2023/03/24 11:44:45;;;;;;;3.93;3.33;;;16.30;92.30;;;;;;5044195;28;20806;-80
2023/03/24 11:47:31;;;;;;;5.37;4.27;;;16.20;92.00;;;;;;5046348;28;20445;-81
2023/03/24 11:50:02;;;;;;;5.03;4.27;;;16.10;92.60;;;;;;5049669;28;20521;-83
2023/03/24 11:52:46;;;;;;;6.30;5.00;;;16.10;92.90;;;;;;5048439;28;20411;-79
2023/03/24 11:55:30;;;;;;;4.27;2.80;;;16.20;92.60;;;;;;5037575;28;20421;-81
2023/03/24 11:58:00;;;;;;;3.40;2.70;;;16.30;93.20;;;;;;5040004;28;20429;-79
2023/03/24 12:00:47;;;;;;;5.07;2.70;;;16.50;93.60;;;;;;5032419;28;20925;-76
2023/03/24 12:03:28;;;;;;;2.80;2.60;;;16.70;91.50;;;;;;5051165;28;20542;-81
2023/03/24 12:06:15;;;;;;;5.27;3.10;;;16.90;90.60;;;;;;5051897;28;20412;-78
2023/03/24 12:08:47;;;;;;;3.20;2.67;;;17.10;90.30;;;;;;5051644;28;20715;-79
2023/03/24 12:11:19;;;;;;;3.93;2.50;;;17.50;90.80;;;;;;5050830;28;20888;-78
2023/03/24 12:13:48;;;;;;;7.67;3.27;;;17.70;88.70;;;;;;5050424;28;20435;-79
2023/03/24 12:16:23;;;;;;;2.57;2.37;;;17.90;86.70;;;;;;5052576;28;20404;-78
2023/03/24 12:19:27;;;;;;;5.07;2.40;;;17.90;88.10;;;;;;5051330;28;20860;-78
2023/03/24 12:21:52;;;;;;;3.17;1.93;;;17.80;86.10;;;;;;5051700;28;20759;-78
2023/03/24 12:24:23;;;;;;;2.93;2.73;;;17.80;85.60;;;;;;5064603;28;20511;-77
2023/03/24 12:26:54;;;;;;;9.73;2.53;;;17.90;86.70;;;;;;5069335;28;20161;-78
2023/03/24 12:29:32;;;;;;;3.90;2.73;;;18.00;85.00;;;;;;5052960;28;20388;-78
2023/03/24 12:32:07;;;;;;;2.97;2.30;;;18.10;84.20;;;;;;5052767;28;20411;-78
2023/03/24 12:34:43;;;;;;;4.93;2.60;;;18.00;82.90;;;;;;5050481;28;20404;-79
2023/03/24 12:37:12;;;;;;;3.20;2.50;;;18.10;84.70;;;;;;5055423;28;20740;-78
2023/03/24 12:39:53;;;;;;;3.70;2.40;;;18.00;81.40;;;;;;5055468;28;20754;-78
2023/03/24 12:42:22;;;;;;;4.53;2.60;;;17.80;81.60;;;;;;5043443;28;20804;-77
2023/03/24 12:44:54;;;;;;;3.03;2.83;;;17.60;80.30;;;;;;5034689;28;20519;-78
2023/03/24 12:47:52;;;;;;;3.60;2.33;;;17.60;82.30;;;;;;5036644;28;20417;-77
2023/03/24 12:50:50;;;;;;;3.27;2.53;;;17.50;81.60;;;;;;5036907;28;20469;-77
2023/03/24 12:53:52;;;;;;;5.60;3.03;;;17.30;82.50;;;;;;4951810;28;20421;-77
2023/03/24 12:56:23;;;;;;;4.83;3.30;;;17.10;84.30;;;;;;5036372;28;20444;-78
2023/03/24 12:59:02;;;;;;;3.20;2.90;;;17.10;85.30;;;;;;5036154;28;20427;-78
2023/03/24 13:01:42;;;;;;;4.27;2.47;;;17.10;87.00;;;;;;5035348;28;20464;-78
2023/03/24 13:04:10;;;;;;;3.00;2.80;;;17.00;87.50;;;;;;5036039;28;20440;-78
2023/03/24 13:07:05;;;;;;;5.87;3.10;;;16.90;87.70;;;;;;5017470;28;20413;-78
2023/03/24 13:09:54;;;;;;;4.63;2.80;;;16.90;87.00;;;;;;5035153;28;20857;-79
2023/03/24 13:12:43;;;;;;;4.30;2.63;;;16.80;88.50;;;;;;5017966;28;20420;-78
2023/03/24 13:15:11;;;;;;;6.27;3.10;;;16.70;84.90;;;;;;5033996;28;20439;-77
2023/03/24 13:17:50;;;;;;;3.93;2.47;;;16.60;85.00;;;;;;5016353;28;20437;-77